Time;durP1;ratioP1;P1;durP2;ratioP2;P2;SDS_P1;SDS_P2;PMS_P1;PMS_P2;Temp;Humidity;BMP_temperature;BMP_pressure;BME280_temperature;BME280_humidity;BME280_pressure;Samples;Min_cycle;Max_cycle;Signal;HPM_P1;HPM_P2
2022/10/21 00:01:19;;;;;;;41.90;21.60;;;;;;;13.07;100.00;100650.53;4964198;28;20034;-78
2022/10/21 00:03:44;;;;;;;47.85;20.55;;;;;;;13.07;100.00;100632.31;4963739;28;20522;-81
2022/10/21 00:06:11;;;;;;;42.05;20.25;;;;;;;13.11;100.00;100624.97;4962411;28;20041;-76
2022/10/21 00:08:37;;;;;;;40.75;20.23;;;;;;;13.11;100.00;100624.97;4958147;28;20039;-77
2022/10/21 00:11:05;;;;;;;54.88;19.05;;;;;;;13.17;100.00;100625.06;4962643;28;20186;-75
2022/10/21 00:13:32;;;;;;;37.65;20.65;;;;;;;13.15;100.00;100624.44;4947035;28;20027;-75
2022/10/21 00:16:13;;;;;;;42.40;20.25;;;;;;;13.06;100.00;100617.69;4961324;28;20054;-76
2022/10/21 00:18:40;;;;;;;47.22;19.67;;;;;;;13.08;100.00;100620.13;4974694;28;20070;-77
2022/10/21 00:21:08;;;;;;;41.55;19.83;;;;;;;13.07;100.00;100614.09;4965844;28;20038;-75
2022/10/21 00:23:34;;;;;;;34.05;18.35;;;;;;;13.07;100.00;100631.50;4965189;28;20169;-76
2022/10/21 00:26:00;;;;;;;42.53;18.90;;;;;;;13.00;100.00;100623.59;4965583;28;20486;-77
2022/10/21 00:28:26;;;;;;;34.70;19.38;;;;;;;13.04;100.00;100625.66;4952672;28;20034;-77
2022/10/21 00:30:51;;;;;;;36.25;16.70;;;;;;;13.06;100.00;100628.09;4962522;28;20030;-76
2022/10/21 00:33:17;;;;;;;31.67;17.85;;;;;;;13.04;100.00;100622.28;4963647;28;21119;-74
2022/10/21 00:35:48;;;;;;;35.13;16.92;;;;;;;13.06;100.00;100617.69;4979655;28;20038;-77
2022/10/21 00:38:14;;;;;;;36.72;17.33;;;;;;;12.96;100.00;100614.50;4965752;28;20452;-80
2022/10/21 00:40:39;;;;;;;36.53;17.40;;;;;;;12.93;100.00;100627.91;4949319;28;20073;-74
2022/10/21 00:43:04;;;;;;;37.65;18.08;;;;;;;12.93;100.00;100626.09;4966002;28;20527;-76
2022/10/21 00:45:30;;;;;;;38.70;16.85;;;;;;;12.98;100.00;100620.38;4983641;28;20513;-76
2022/10/21 00:48:04;;;;;;;35.10;16.58;;;;;;;12.90;100.00;100621.22;4984256;28;20506;-75
2022/10/21 00:50:38;;;;;;;35.58;16.60;;;;;;;12.90;100.00;100608.22;4978222;28;20395;-76
2022/10/21 00:53:06;;;;;;;33.88;16.38;;;;;;;12.89;100.00;100613.63;4984043;28;20039;-77
2022/10/21 00:55:35;;;;;;;30.38;15.68;;;;;;;12.87;100.00;100603.38;4981001;28;20071;-76
2022/10/21 00:58:02;;;;;;;35.08;16.35;;;;;;;12.86;100.00;100604.34;4963514;28;20047;-77
2022/10/21 01:00:28;;;;;;;23.27;15.38;;;;;;;12.86;100.00;100601.75;4969394;28;20042;-77
2022/10/21 01:02:54;;;;;;;35.35;15.63;;;;;;;12.79;100.00;100603.44;4965306;28;20098;-76
2022/10/21 01:05:21;;;;;;;25.08;14.25;;;;;;;12.68;100.00;100602.06;4985172;28;20038;-77
2022/10/21 01:07:47;;;;;;;33.33;16.02;;;;;;;12.71;100.00;100603.50;4968334;28;20030;-76
2022/10/21 01:10:13;;;;;;;33.58;15.25;;;;;;;12.67;100.00;100597.84;4967414;28;20041;-78
2022/10/21 01:12:47;;;;;;;26.13;14.85;;;;;;;12.62;100.00;100595.78;4968830;28;20039;-78
2022/10/21 01:15:24;;;;;;;23.60;13.05;;;;;;;12.56;100.00;100595.66;4965686;28;20035;-78
2022/10/21 01:18:27;;;;;;;24.08;12.98;;;;;;;12.49;100.00;100584.31;4983827;28;20034;-78
2022/10/21 01:20:58;;;;;;;21.48;13.27;;;;;;;12.43;100.00;100584.03;4968192;28;20031;-76
2022/10/21 01:23:39;;;;;;;21.38;12.25;;;;;;;12.39;100.00;100585.34;4964409;28;20046;-77
2022/10/21 01:26:23;;;;;;;24.08;13.30;;;;;;;12.30;100.00;100582.97;4965039;28;20130;-78
2022/10/21 01:29:20;;;;;;;26.17;13.05;;;;;;;12.24;100.00;100576.69;4960946;28;20062;-76
2022/10/21 01:31:55;;;;;;;27.83;13.68;;;;;;;12.21;100.00;100570.03;4964098;28;20109;-78
2022/10/21 01:34:56;;;;;;;19.70;12.38;;;;;;;12.18;100.00;100559.97;4980588;28;20039;-78
2022/10/21 01:37:24;;;;;;;24.80;13.40;;;;;;;12.17;100.00;100558.38;4950092;28;20043;-76
2022/10/21 01:40:08;;;;;;;23.05;13.43;;;;;;;12.15;100.00;100551.72;4970752;28;20035;-77
2022/10/21 01:42:41;;;;;;;24.42;13.43;;;;;;;12.15;100.00;100559.50;4965317;28;20153;-78
2022/10/21 01:45:20;;;;;;;27.23;13.75;;;;;;;12.20;100.00;100558.00;4964761;28;20047;-76
2022/10/21 01:47:51;;;;;;;24.95;13.77;;;;;;;12.19;100.00;100558.22;4963876;28;20043;-75
2022/10/21 01:50:25;;;;;;;22.13;12.25;;;;;;;12.17;100.00;100553.19;4965730;28;20070;-79
2022/10/21 01:52:56;;;;;;;21.08;13.15;;;;;;;12.18;100.00;100549.59;4981334;28;20547;-78
2022/10/21 01:55:26;;;;;;;23.42;13.02;;;;;;;12.26;100.00;100549.53;4978280;28;20038;-77
2022/10/21 01:57:58;;;;;;;22.27;11.93;;;;;;;12.21;100.00;100549.25;4978722;28;20119;-78
2022/10/21 02:00:24;;;;;;;23.05;11.93;;;;;;;12.14;100.00;100550.91;4981605;28;20027;-78
2022/10/21 02:02:56;;;;;;;25.67;12.25;;;;;;;12.11;100.00;100546.06;4959896;28;20042;-77
2022/10/21 02:05:28;;;;;;;21.55;11.52;;;;;;;12.06;100.00;100548.38;4964783;28;20114;-78
2022/10/21 02:07:54;;;;;;;21.10;11.50;;;;;;;12.01;100.00;100546.28;4968524;28;20115;-79
2022/10/21 02:10:21;;;;;;;23.48;12.77;;;;;;;12.07;100.00;100544.78;4983884;28;20034;-78
2022/10/21 02:12:52;;;;;;;31.83;14.45;;;;;;;12.13;100.00;100540.69;4962030;28;20840;-75
2022/10/21 02:15:20;;;;;;;24.42;13.50;;;;;;;12.16;100.00;100538.56;4977852;28;20039;-78
2022/10/21 02:17:55;;;;;;;28.35;13.90;;;;;;;12.07;100.00;100530.00;4965888;28;20035;-78
2022/10/21 02:20:25;;;;;;;34.03;15.25;;;;;;;12.20;100.00;100526.81;4960255;28;20094;-76
2022/10/21 02:22:51;;;;;;;39.30;14.52;;;;;;;12.13;100.00;100515.53;4969612;28;20090;-79
2022/10/21 02:25:24;;;;;;;29.88;14.48;;;;;;;12.15;100.00;100517.94;4979616;28;20493;-78
2022/10/21 02:27:50;;;;;;;;;;;;;;;12.23;100.00;100510.09;4966593;28;20043;-78
2022/10/21 02:30:16;;;;;;;28.35;14.05;;;;;;;12.11;100.00;100506.25;4966102;28;20013;-78
2022/10/21 02:32:46;;;;;;;23.38;13.48;;;;;;;12.10;100.00;100512.47;4984866;28;20035;-78
2022/10/21 02:35:27;;;;;;;31.50;15.32;;;;;;;12.13;100.00;100512.94;4967662;28;20073;-76
2022/10/21 02:38:13;;;;;;;29.38;14.90;;;;;;;12.25;100.00;100503.72;4969739;28;20045;-77
2022/10/21 02:40:44;;;;;;;26.60;14.85;;;;;;;12.16;100.00;100509.97;4950566;28;20046;-76
2022/10/21 02:43:41;;;;;;;31.13;14.77;;;;;;;12.16;100.00;100501.38;4968283;28;20039;-77
2022/10/21 02:46:10;;;;;;;24.30;13.35;;;;;;;12.13;100.00;100506.91;4952603;28;20034;-78
2022/10/21 02:48:37;;;;;;;32.80;14.18;;;;;;;12.08;100.00;100510.81;4963186;28;20034;-79
2022/10/21 02:51:04;;;;;;;27.30;13.82;;;;;;;12.14;100.00;100508.53;4966753;28;20035;-78
2022/10/21 02:53:30;;;;;;;26.55;15.13;;;;;;;12.11;100.00;100507.09;4967018;28;20037;-80
2022/10/21 02:55:55;;;;;;;30.05;14.25;;;;;;;12.10;100.00;100509.84;4965200;28;21767;-77
2022/10/21 02:58:21;;;;;;;25.65;15.02;;;;;;;12.11;100.00;100501.06;4964147;28;20046;-78
2022/10/21 03:00:46;;;;;;;28.58;16.63;;;;;;;11.98;100.00;100515.44;4981355;28;20518;-75
2022/10/21 03:03:12;;;;;;;28.27;17.08;;;;;;;11.98;100.00;100514.63;4963858;28;20034;-79
2022/10/21 03:05:37;;;;;;;38.33;19.35;;;;;;;12.01;100.00;100512.50;4963473;28;20045;-78
2022/10/21 03:08:03;;;;;;;39.58;18.88;;;;;;;12.01;100.00;100511.69;4948784;28;20407;-75
2022/10/21 03:10:29;;;;;;;33.55;17.85;;;;;;;12.09;100.00;100522.03;4948782;28;20109;-78
2022/10/21 03:12:54;;;;;;;29.63;17.13;;;;;;;12.20;100.00;100519.03;4968485;28;20034;-78
2022/10/21 03:15:19;;;;;;;31.42;15.45;;;;;;;12.13;100.00;100531.13;4965139;28;20380;-79
2022/10/21 03:17:46;;;;;;;29.75;14.75;;;;;;;12.10;100.00;100528.06;4967058;28;20035;-79
2022/10/21 03:20:11;;;;;;;25.35;13.82;;;;;;;12.09;100.00;100524.63;4968475;28;20117;-79
2022/10/21 03:22:37;;;;;;;24.10;13.23;;;;;;;12.11;100.00;100524.44;4966149;28;20051;-77
2022/10/21 03:25:03;;;;;;;19.90;11.85;;;;;;;12.24;100.00;100522.91;4979992;28;20046;-77
2022/10/21 03:27:29;;;;;;;22.77;11.48;;;;;;;12.27;100.00;100521.75;4962700;28;20065;-76
2022/10/21 03:29:54;;;;;;;20.17;11.82;;;;;;;12.21;100.00;100522.47;4952010;28;20031;-76
2022/10/21 03:32:19;;;;;;;23.75;11.27;;;;;;;12.33;100.00;100509.84;4966537;28;20034;-76
2022/10/21 03:34:45;;;;;;;22.67;11.98;;;;;;;12.33;100.00;100504.66;4965930;28;20046;-77
2022/10/21 03:37:10;;;;;;;18.55;10.60;;;;;;;12.24;100.00;100511.69;4964279;28;20395;-78
2022/10/21 03:39:36;;;;;;;22.55;12.75;;;;;;;12.20;100.00;100506.03;4964970;28;20476;-79
2022/10/21 03:42:01;;;;;;;25.38;12.70;;;;;;;12.27;100.00;100509.56;4966317;28;20439;-79
2022/10/21 03:44:27;;;;;;;23.65;13.63;;;;;;;12.18;100.00;100515.00;4960014;28;20043;-79
2022/10/21 03:46:52;;;;;;;29.40;14.65;;;;;;;12.17;100.00;100518.59;4947664;28;20039;-77
2022/10/21 03:49:17;;;;;;;21.77;12.75;;;;;;;12.15;100.00;100510.13;4962530;28;20050;-78
2022/10/21 03:51:43;;;;;;;25.83;13.15;;;;;;;12.18;100.00;100510.59;4962673;28;20038;-78
2022/10/21 03:54:08;;;;;;;24.88;13.05;;;;;;;12.29;100.00;100506.78;4960183;28;20027;-78
2022/10/21 03:56:34;;;;;;;25.83;13.43;;;;;;;12.17;100.00;100506.41;4962868;28;20112;-80
2022/10/21 03:58:59;;;;;;;31.55;13.68;;;;;;;12.22;100.00;100504.09;4965160;28;20665;-79
2022/10/21 04:01:25;;;;;;;23.48;14.13;;;;;;;12.22;100.00;100498.06;4971118;28;20094;-77
2022/10/21 04:03:51;;;;;;;22.10;12.90;;;;;;;12.23;100.00;100495.28;4959580;28;20039;-78
2022/10/21 04:06:16;;;;;;;21.85;12.30;;;;;;;12.35;100.00;100498.28;4964095;28;20503;-75
2022/10/21 04:08:42;;;;;;;28.85;12.80;;;;;;;12.25;100.00;100489.94;4962504;28;20504;-77
2022/10/21 04:11:07;;;;;;;21.02;11.57;;;;;;;12.27;100.00;100488.75;4965464;28;20035;-78
2022/10/21 04:13:33;;;;;;;33.38;13.23;;;;;;;12.25;100.00;100493.31;4972738;28;20113;-77
2022/10/21 04:16:05;;;;;;;18.35;12.30;;;;;;;12.19;100.00;100483.63;4979845;28;20039;-78
2022/10/21 04:18:31;;;;;;;18.92;10.57;;;;;;;12.10;100.00;100496.88;4961884;28;20046;-77
2022/10/21 04:20:57;;;;;;;19.08;9.30;;;;;;;12.20;100.00;100500.03;4958323;28;20046;-77
2022/10/21 04:23:23;;;;;;;20.65;9.77;;;;;;;12.13;100.00;100506.91;4979680;28;20031;-78
2022/10/21 04:25:48;;;;;;;21.67;10.98;;;;;;;12.10;100.00;100509.84;4966562;28;20369;-77
2022/10/21 04:28:14;;;;;;;21.60;11.65;;;;;;;12.17;100.00;100509.00;4963223;28;20042;-80
2022/10/21 04:30:39;;;;;;;19.60;11.50;;;;;;;12.18;100.00;100497.59;4950188;28;20050;-75
2022/10/21 04:33:05;;;;;;;21.30;11.07;;;;;;;12.27;100.00;100500.97;4958798;28;20030;-77
2022/10/21 04:35:30;;;;;;;24.95;11.55;;;;;;;12.22;100.00;100496.28;4959906;28;20479;-76
2022/10/21 04:37:55;;;;;;;23.75;11.18;;;;;;;12.21;100.00;100493.84;4962791;28;20727;-77
2022/10/21 04:40:21;;;;;;;21.20;9.45;;;;;;;12.32;100.00;100501.25;4962503;28;20073;-76
2022/10/21 04:42:50;;;;;;;15.98;9.50;;;;;;;12.22;100.00;100491.09;4959661;28;20028;-77
2022/10/21 04:45:16;;;;;;;20.08;9.05;;;;;;;12.19;100.00;100496.63;4977460;28;20043;-79
2022/10/21 04:47:42;;;;;;;23.98;12.02;;;;;;;12.24;100.00;100496.91;4959893;28;20028;-76
2022/10/21 04:50:08;;;;;;;21.88;10.30;;;;;;;12.18;100.00;100484.59;4960404;28;20086;-77
2022/10/21 04:52:34;;;;;;;17.13;8.77;;;;;;;12.33;100.00;100489.06;4963630;28;20047;-76
2022/10/21 04:54:59;;;;;;;19.60;9.98;;;;;;;12.35;100.00;100490.47;4966961;28;20035;-78
2022/10/21 04:57:24;;;;;;;17.80;9.48;;;;;;;12.26;100.00;100492.34;4965356;28;20034;-78
2022/10/21 04:59:50;;;;;;;18.38;9.50;;;;;;;12.30;100.00;100486.78;4949317;28;20034;-78
2022/10/21 05:02:16;;;;;;;13.75;7.65;;;;;;;12.18;100.00;100479.41;4967471;28;20031;-77
2022/10/21 05:04:41;;;;;;;20.25;9.90;;;;;;;12.15;100.00;100490.16;4980143;28;20028;-78
2022/10/21 05:07:07;;;;;;;23.20;10.45;;;;;;;12.24;100.00;100485.69;4957930;28;20098;-75
2022/10/21 05:09:32;;;;;;;21.80;10.25;;;;;;;12.26;100.00;100478.53;4965851;28;20042;-77
2022/10/21 05:11:58;;;;;;;22.70;10.52;;;;;;;12.23;100.00;100473.69;4968523;28;20034;-78
2022/10/21 05:14:23;;;;;;;25.20;10.52;;;;;;;12.17;100.00;100471.81;4973147;28;21057;-77
2022/10/21 05:16:49;;;;;;;20.92;10.35;;;;;;;12.22;100.00;100465.09;4972649;28;20049;-76
2022/10/21 05:19:14;;;;;;;24.27;10.55;;;;;;;12.32;100.00;100469.22;4969943;28;20042;-75
2022/10/21 05:21:40;;;;;;;19.15;9.45;;;;;;;12.19;100.00;100469.84;4967919;28;20046;-77
2022/10/21 05:24:05;;;;;;;18.70;10.38;;;;;;;12.21;100.00;100462.66;4967911;28;20034;-76
2022/10/21 05:26:31;;;;;;;17.38;10.02;;;;;;;12.15;100.00;100464.19;4961371;28;20085;-78
2022/10/21 05:28:57;;;;;;;20.35;9.55;;;;;;;12.17;100.00;100457.00;4966813;28;20489;-77
2022/10/21 05:31:23;;;;;;;20.00;8.60;;;;;;;12.07;100.00;100449.44;4984636;28;20117;-76
2022/10/21 05:33:48;;;;;;;20.85;7.78;;;;;;;12.17;100.00;100445.81;4964692;28;20266;-77
2022/10/21 05:36:14;;;;;;;14.95;7.93;;;;;;;12.27;100.00;100441.16;4966461;28;20082;-75
2022/10/21 05:38:39;;;;;;;17.92;7.50;;;;;;;12.31;100.00;100432.03;4967405;28;20562;-76
2022/10/21 05:41:05;;;;;;;15.98;6.82;;;;;;;12.32;100.00;100425.84;4965597;28;20050;-78
2022/10/21 05:43:30;;;;;;;14.20;7.13;;;;;;;12.34;100.00;100428.25;4961692;28;20038;-78
2022/10/21 05:45:56;;;;;;;15.38;7.60;;;;;;;12.25;100.00;100417.94;4981099;28;20456;-75
2022/10/21 05:48:22;;;;;;;16.33;8.63;;;;;;;12.27;100.00;100422.97;4983416;28;20645;-77
2022/10/21 05:50:51;;;;;;;14.02;7.82;;;;;;;12.19;100.00;100426.44;4949871;28;20027;-79
2022/10/21 05:53:17;;;;;;;14.50;7.55;;;;;;;12.11;100.00;100425.69;4950871;28;20093;-77
2022/10/21 05:55:42;;;;;;;16.15;7.80;;;;;;;12.27;100.00;100430.75;4978979;28;20511;-74
2022/10/21 05:58:08;;;;;;;18.73;7.93;;;;;;;12.22;100.00;100431.31;4963319;28;20057;-76
2022/10/21 06:00:34;;;;;;;14.00;7.60;;;;;;;12.27;100.00;100425.56;4983757;28;20412;-77
2022/10/21 06:02:59;;;;;;;20.67;7.82;;;;;;;12.23;100.00;100425.09;4980437;28;20054;-76
2022/10/21 06:05:25;;;;;;;16.35;8.45;;;;;;;12.22;100.00;100436.50;4966017;28;20480;-77
2022/10/21 06:07:50;;;;;;;15.45;8.20;;;;;;;12.29;100.00;100439.19;4969486;28;20142;-76
2022/10/21 06:10:16;;;;;;;13.13;6.75;;;;;;;12.26;100.00;100424.75;4978508;28;20058;-76
2022/10/21 06:12:42;;;;;;;16.23;7.82;;;;;;;12.30;100.00;100422.63;4982102;28;20039;-76
2022/10/21 06:15:08;;;;;;;15.23;8.05;;;;;;;12.38;100.00;100414.75;4966167;28;20086;-77
2022/10/21 06:17:33;;;;;;;16.50;7.60;;;;;;;12.34;100.00;100426.47;4963897;28;20505;-76
2022/10/21 06:20:00;;;;;;;13.10;8.00;;;;;;;12.23;100.00;100419.91;4979983;28;20038;-76
2022/10/21 06:22:26;;;;;;;17.65;6.93;;;;;;;12.38;100.00;100422.53;4962312;28;20035;-75
2022/10/21 06:24:51;;;;;;;11.23;6.90;;;;;;;12.48;100.00;100427.47;4965163;28;20105;-75
2022/10/21 06:27:17;;;;;;;12.55;6.65;;;;;;;12.48;100.00;100424.88;4966276;28;20411;-75
2022/10/21 06:29:42;;;;;;;14.85;7.65;;;;;;;12.38;100.00;100422.53;4968986;28;20559;-77
2022/10/21 06:32:08;;;;;;;22.63;6.53;;;;;;;12.55;100.00;100425.78;4968904;28;20435;-74
2022/10/21 06:34:33;;;;;;;16.00;7.50;;;;;;;12.48;100.00;100418.88;4966238;28;20381;-77
2022/10/21 06:36:59;;;;;;;19.77;8.45;;;;;;;12.48;100.00;100421.47;4960125;28;20034;-77
2022/10/21 06:39:24;;;;;;;15.90;6.28;;;;;;;12.47;100.00;100431.09;4981659;28;20642;-77
2022/10/21 06:41:50;;;;;;;15.00;7.40;;;;;;;12.46;100.00;100426.84;4968033;28;20069;-77
2022/10/21 06:44:35;;;;;;;13.38;6.68;;;;;;;12.52;100.00;100427.94;4967767;28;20046;-78
2022/10/21 06:47:00;;;;;;;10.63;5.88;;;;;;;12.66;100.00;100434.97;4977862;28;20503;-77
2022/10/21 06:49:26;;;;;;;14.90;6.13;;;;;;;12.77;100.00;100441.50;4963722;28;20035;-77
2022/10/21 06:51:51;;;;;;;14.75;6.13;;;;;;;12.68;100.00;100443.41;4960253;28;20399;-77
2022/10/21 06:54:17;;;;;;;10.02;5.65;;;;;;;12.61;100.00;100458.88;4967842;28;20034;-76
2022/10/21 06:56:42;;;;;;;14.07;6.40;;;;;;;12.58;100.00;100469.66;4953558;28;20588;-78
2022/10/21 06:59:09;;;;;;;18.20;7.88;;;;;;;12.51;100.00;100479.16;4967436;28;20042;-76
2022/10/21 07:01:35;;;;;;;12.63;6.55;;;;;;;12.51;100.00;100468.75;4966121;28;20046;-77
2022/10/21 07:04:02;;;;;;;12.05;6.68;;;;;;;12.51;100.00;100481.75;4977644;28;20133;-77
2022/10/21 07:06:28;;;;;;;13.40;6.65;;;;;;;12.50;100.00;100495.72;4978983;28;20780;-76
2022/10/21 07:08:54;;;;;;;9.70;5.55;;;;;;;12.47;100.00;100506.50;4967712;28;20042;-77
2022/10/21 07:11:20;;;;;;;15.52;6.25;;;;;;;12.54;100.00;100514.38;4966418;28;20039;-77
2022/10/21 07:13:45;;;;;;;10.90;5.68;;;;;;;12.50;100.00;100516.53;4979881;28;20058;-76
2022/10/21 07:16:32;;;;;;;18.00;5.80;;;;;;;12.68;100.00;100511.03;4967673;28;20034;-77
2022/10/21 07:18:58;;;;;;;10.73;5.78;;;;;;;12.66;100.00;100519.00;4965706;28;20133;-75
2022/10/21 07:21:26;;;;;;;9.20;5.20;;;;;;;12.69;100.00;100523.03;4963255;28;20141;-76
2022/10/21 07:23:53;;;;;;;9.20;5.15;;;;;;;12.78;100.00;100523.78;4965045;28;20400;-79
2022/10/21 07:26:21;;;;;;;13.35;5.60;;;;;;;12.85;100.00;100519.47;4957185;28;20038;-77
2022/10/21 07:28:47;;;;;;;9.07;4.82;;;;;;;12.74;100.00;100520.72;4970132;28;20030;-77
2022/10/21 07:31:17;;;;;;;12.45;5.53;;;;;;;12.78;100.00;100516.78;4966124;28;20094;-77
2022/10/21 07:33:42;;;;;;;12.55;6.55;;;;;;;12.86;100.00;100518.47;4966233;28;20035;-77
2022/10/21 07:36:12;;;;;;;13.20;5.78;;;;;;;12.98;100.00;100527.47;4967371;28;21770;-76
2022/10/21 07:38:38;;;;;;;11.48;5.05;;;;;;;12.91;100.00;100534.38;4966860;28;20042;-76
2022/10/21 07:41:05;;;;;;;13.15;5.45;;;;;;;12.99;100.00;100521.28;4965402;28;20655;-77
2022/10/21 07:43:30;;;;;;;11.82;5.45;;;;;;;13.05;100.00;100512.78;4967727;28;20046;-77
2022/10/21 07:45:57;;;;;;;16.50;6.15;;;;;;;13.13;100.00;100513.66;4963785;28;20037;-76
2022/10/21 07:48:24;;;;;;;12.88;5.57;;;;;;;13.12;100.00;100512.84;4964651;28;20102;-77
2022/10/21 07:50:50;;;;;;;15.13;6.63;;;;;;;13.22;100.00;100512.56;4965665;28;20043;-75
2022/10/21 07:53:16;;;;;;;11.18;5.53;;;;;;;13.22;100.00;100508.19;4963988;28;20473;-77
2022/10/21 07:55:42;;;;;;;10.57;4.95;;;;;;;13.25;100.00;100513.03;4961033;28;20089;-76
2022/10/21 07:58:07;;;;;;;14.52;5.22;;;;;;;13.17;100.00;100496.72;4962693;28;20027;-76
2022/10/21 08:00:33;;;;;;;10.55;5.55;;;;;;;13.22;100.00;100496.97;4967280;28;20041;-76
2022/10/21 08:02:58;;;;;;;10.32;5.57;;;;;;;13.25;100.00;100496.59;4957059;28;20039;-77
2022/10/21 08:05:24;;;;;;;15.07;5.50;;;;;;;13.19;100.00;100498.13;4964023;28;20031;-77
2022/10/21 08:07:49;;;;;;;13.57;5.40;;;;;;;13.21;100.00;100500.56;4962220;28;20817;-76
2022/10/21 08:10:15;;;;;;;10.15;5.47;;;;;;;13.28;100.00;100492.81;4967495;28;20037;-76
2022/10/21 08:12:40;;;;;;;12.88;5.95;;;;;;;13.30;100.00;100496.06;4978140;28;20507;-76
2022/10/21 08:15:06;;;;;;;10.30;5.05;;;;;;;13.27;100.00;100501.63;4965043;28;20467;-76
2022/10/21 08:17:32;;;;;;;13.05;6.20;;;;;;;13.33;100.00;100504.34;4961167;28;20102;-76
2022/10/21 08:19:57;;;;;;;15.05;5.68;;;;;;;13.27;100.00;100507.66;4967838;28;20039;-77
2022/10/21 08:22:23;;;;;;;12.73;6.60;;;;;;;13.18;100.00;100514.72;4964698;28;20034;-78
2022/10/21 08:24:48;;;;;;;7.97;5.70;;;;;;;13.27;100.00;100506.84;4962690;28;20027;-76
2022/10/21 08:27:14;;;;;;;11.15;5.75;;;;;;;13.19;100.00;100518.16;4963005;28;20035;-74
2022/10/21 08:29:39;;;;;;;20.65;6.80;;;;;;;13.22;100.00;100507.38;4966498;28;20230;-76
2022/10/21 08:32:05;;;;;;;19.75;7.00;;;;;;;13.27;100.00;100510.25;4979018;28;20043;-77
2022/10/21 08:34:30;;;;;;;14.95;6.72;;;;;;;13.46;100.00;100508.91;4965745;28;20031;-75
2022/10/21 08:36:56;;;;;;;10.80;6.55;;;;;;;13.41;100.00;100504.25;4962600;28;20039;-78
2022/10/21 08:39:23;;;;;;;17.85;7.30;;;;;;;13.45;100.00;100504.72;4965165;28;20038;-76
2022/10/21 08:42:13;;;;;;;12.65;7.25;;;;;;;13.46;100.00;100495.88;4962593;28;20090;-77
2022/10/21 08:44:47;;;;;;;18.08;6.72;;;;;;;13.40;100.00;100497.41;4969548;28;20094;-76
2022/10/21 08:47:19;;;;;;;18.08;8.48;;;;;;;13.34;100.00;100503.38;4969067;28;20034;-76
2022/10/21 08:50:04;;;;;;;17.15;8.63;;;;;;;13.40;100.00;100509.66;4968051;28;20464;-76
2022/10/21 08:52:38;;;;;;;14.43;7.78;;;;;;;13.49;100.00;100518.97;4967880;28;20615;-78
2022/10/21 08:55:11;;;;;;;15.15;7.88;;;;;;;13.53;100.00;100519.44;4970830;28;20054;-76
2022/10/21 08:57:36;;;;;;;;;;;;;;;13.58;100.00;100522.28;4969639;28;20038;-76
2022/10/21 09:00:12;;;;;;;15.52;7.15;;;;;;;13.55;100.00;100518.25;4965460;28;19918;-77
2022/10/21 09:02:51;;;;;;;19.45;8.75;;;;;;;13.68;100.00;100524.63;4966342;28;20046;-76
2022/10/21 09:05:29;;;;;;;16.73;8.68;;;;;;;13.65;100.00;100530.97;4981205;28;20043;-76
2022/10/21 09:08:05;;;;;;;12.10;8.00;;;;;;;13.66;100.00;100544.84;4962438;28;20046;-76
2022/10/21 09:10:55;;;;;;;15.85;7.45;;;;;;;13.82;100.00;100537.63;4966945;28;20042;-76
2022/10/21 09:13:33;;;;;;;17.20;7.35;;;;;;;13.98;100.00;100541.78;4968301;28;20074;-76
2022/10/21 09:16:15;;;;;;;18.70;7.50;;;;;;;13.91;100.00;100551.31;4967876;28;20440;-75
2022/10/21 09:18:49;;;;;;;16.10;6.85;;;;;;;13.86;100.00;100551.06;4967128;28;20066;-77
2022/10/21 09:21:51;;;;;;;12.13;5.95;;;;;;;13.84;100.00;100566.06;4967433;28;20499;-76
2022/10/21 09:24:47;;;;;;;16.60;6.53;;;;;;;13.91;100.00;100566.16;4946263;28;20038;-77
2022/10/21 09:27:12;;;;;;;18.20;6.65;;;;;;;13.87;100.00;100575.34;4966392;28;20064;-76
2022/10/21 09:29:49;;;;;;;15.10;6.22;;;;;;;13.89;100.00;100573.34;4967226;28;20057;-76
2022/10/21 09:32:54;;;;;;;14.80;5.90;;;;;;;13.93;100.00;100562.38;4982781;28;20038;-75
2022/10/21 09:35:28;;;;;;;19.33;6.80;;;;;;;13.90;100.00;100567.97;4946889;28;20071;-78
2022/10/21 09:37:59;;;;;;;12.02;6.22;;;;;;;13.95;100.00;100567.41;4964680;28;20050;-75
2022/10/21 09:40:29;;;;;;;17.40;7.10;;;;;;;13.90;100.00;100567.97;4964498;28;20027;-76
2022/10/21 09:42:58;;;;;;;19.35;6.75;;;;;;;13.95;100.00;100575.22;4965619;28;20039;-77
2022/10/21 09:45:31;;;;;;;15.20;6.95;;;;;;;13.89;100.00;100581.97;4968253;28;20507;-78
2022/10/21 09:48:04;;;;;;;17.60;7.20;;;;;;;13.98;100.00;100570.44;4984473;28;20093;-76
2022/10/21 09:50:32;;;;;;;13.68;7.05;;;;;;;14.13;100.00;100573.03;4966774;28;20093;-76
2022/10/21 09:53:21;;;;;;;20.20;7.43;;;;;;;14.06;100.00;100572.13;4965937;28;20034;-76
2022/10/21 09:55:51;;;;;;;15.73;6.28;;;;;;;14.02;100.00;100589.16;4967895;28;20077;-76
2022/10/21 09:58:46;;;;;;;13.32;6.88;;;;;;;13.90;100.00;100599.25;4968194;28;20039;-78
2022/10/21 10:01:18;;;;;;;15.93;6.68;;;;;;;13.83;100.00;100591.34;4956965;28;20474;-77
2022/10/21 10:03:47;;;;;;;23.27;7.72;;;;;;;13.82;100.00;100601.94;4968196;28;20031;-77
2022/10/21 10:06:28;;;;;;;17.80;6.20;;;;;;;13.81;100.00;100608.94;4980547;28;20034;-77
2022/10/21 10:09:06;;;;;;;15.10;6.90;;;;;;;13.87;100.00;100606.63;4981090;28;20113;-78
2022/10/21 10:11:32;;;;;;;16.73;7.43;;;;;;;13.94;100.00;100597.88;4968182;28;20173;-76
2022/10/21 10:14:20;;;;;;;16.80;7.07;;;;;;;13.90;100.00;100585.38;4967727;28;20145;-78
2022/10/21 10:16:46;;;;;;;15.57;7.85;;;;;;;13.88;100.00;100600.41;4965864;28;20039;-75
2022/10/21 10:19:16;;;;;;;17.75;8.23;;;;;;;13.92;100.00;100607.69;4959678;28;20034;-75
2022/10/21 10:21:42;;;;;;;16.10;7.70;;;;;;;13.96;100.00;100608.13;4967502;28;20073;-77
2022/10/21 10:24:16;;;;;;;15.05;7.93;;;;;;;13.92;100.00;100612.06;4967611;28;20126;-76
2022/10/21 10:26:42;;;;;;;16.67;8.73;;;;;;;13.93;100.00;100613.69;4965088;28;20101;-77
2022/10/21 10:29:17;;;;;;;17.75;8.80;;;;;;;14.01;100.00;100616.19;4983016;28;20042;-76
2022/10/21 10:31:49;;;;;;;18.63;8.73;;;;;;;14.07;100.00;100614.66;4965398;28;20027;-75
2022/10/21 10:34:21;;;;;;;18.10;7.03;;;;;;;14.09;100.00;100612.66;4966280;28;20034;-75
2022/10/21 10:36:49;;;;;;;12.88;6.28;;;;;;;14.21;100.00;100606.00;4980742;28;20089;-77
2022/10/21 10:39:29;;;;;;;15.38;6.38;;;;;;;14.25;100.00;100591.59;4947270;28;20035;-77
2022/10/21 10:41:55;;;;;;;12.48;5.60;;;;;;;14.39;100.00;100592.53;4964793;28;20133;-77
2022/10/21 10:44:41;;;;;;;12.15;5.85;;;;;;;14.31;100.00;100585.63;4968986;28;20495;-78
2022/10/21 10:47:16;;;;;;;14.82;7.38;;;;;;;14.29;100.00;100595.44;4978487;28;20120;-77
2022/10/21 10:49:42;;;;;;;16.30;6.47;;;;;;;14.25;100.00;100604.63;4964313;28;20492;-76
2022/10/21 10:52:11;;;;;;;22.25;8.38;;;;;;;14.36;100.00;100603.34;4984988;28;20035;-78
2022/10/21 10:54:41;;;;;;;17.35;7.47;;;;;;;14.31;100.00;100610.91;4968436;28;20039;-75
2022/10/21 10:57:24;;;;;;;16.20;7.57;;;;;;;14.42;100.00;100599.97;4973291;28;20128;-76
2022/10/21 11:00:00;;;;;;;15.20;7.83;;;;;;;14.40;100.00;100601.97;4967767;28;20027;-78
2022/10/21 11:02:44;;;;;;;17.67;8.38;;;;;;;14.60;100.00;100602.19;4955652;28;20480;-77
2022/10/21 11:05:18;;;;;;;13.95;7.50;;;;;;;14.60;100.00;100600.41;4960303;28;20092;-77
2022/10/21 11:07:52;;;;;;;18.27;7.72;;;;;;;14.60;100.00;100595.19;4979118;28;20404;-77
2022/10/21 11:10:36;;;;;;;13.45;7.63;;;;;;;14.65;100.00;100594.59;4982034;28;20109;-77
2022/10/21 11:13:08;;;;;;;14.65;7.80;;;;;;;14.66;100.00;100595.44;4964050;28;20520;-76
2022/10/21 11:15:52;;;;;;;18.13;6.00;;;;;;;14.78;100.00;100594.72;4978543;28;20547;-76
2022/10/21 11:18:27;;;;;;;14.85;5.97;;;;;;;14.94;100.00;100577.19;4968164;28;20125;-77